sensor_id;sensor_type;location;lat;lon;timestamp;pressure;altitude;pressure_sealevel;temperature;humidity
79577;BME280;69045;48.136;11.386;2023-07-13T00:01:14;95305.91;;;22.55;75.45
79577;BME280;69045;48.136;11.386;2023-07-13T00:03:45;95306.03;;;22.64;74.79
79577;BME280;69045;48.136;11.386;2023-07-13T00:06:13;95303.56;;;22.68;74.94
79577;BME280;69045;48.136;11.386;2023-07-13T00:08:41;95303.88;;;22.66;74.74
79577;BME280;69045;48.136;11.386;2023-07-13T00:11:09;95307.94;;;22.77;74.10
79577;BME280;69045;48.136;11.386;2023-07-13T00:13:38;95300.06;;;22.86;73.51
79577;BME280;69045;48.136;11.386;2023-07-13T00:16:06;95301.34;;;22.88;74.05
79577;BME280;69045;48.136;11.386;2023-07-13T00:18:35;95294.44;;;22.87;73.63
79577;BME280;69045;48.136;11.386;2023-07-13T00:21:05;95296.81;;;22.89;73.85
79577;BME280;69045;48.136;11.386;2023-07-13T00:23:34;95292.47;;;22.93;73.88
79577;BME280;69045;48.136;11.386;2023-07-13T00:26:03;95279.09;;;22.93;73.20
79577;BME280;69045;48.136;11.386;2023-07-13T00:28:33;95284.44;;;22.93;73.84
79577;BME280;69045;48.136;11.386;2023-07-13T00:31:01;95294.84;;;22.95;73.87
79577;BME280;69045;48.136;11.386;2023-07-13T00:33:33;95294.03;;;22.94;73.82
79577;BME280;69045;48.136;11.386;2023-07-13T00:36:01;95302.44;;;22.87;74.38
79577;BME280;69045;48.136;11.386;2023-07-13T00:38:31;95288.47;;;22.77;74.75
79577;BME280;69045;48.136;11.386;2023-07-13T00:41:00;95297.13;;;22.69;75.21
79577;BME280;69045;48.136;11.386;2023-07-13T00:43:28;95297.13;;;22.69;75.35
79577;BME280;69045;48.136;11.386;2023-07-13T00:46:16;95303.25;;;22.69;75.19
79577;BME280;69045;48.136;11.386;2023-07-13T00:48:48;95306.16;;;22.73;75.00
79577;BME280;69045;48.136;11.386;2023-07-13T00:51:22;95302.88;;;22.76;74.77
79577;BME280;69045;48.136;11.386;2023-07-13T00:53:56;95307.25;;;22.72;75.04
79577;BME280;69045;48.136;11.386;2023-07-13T00:56:26;95302.09;;;22.75;74.44
79577;BME280;69045;48.136;11.386;2023-07-13T00:58:57;95300.03;;;22.72;74.52
79577;BME280;69045;48.136;11.386;2023-07-13T01:01:27;95293.19;;;22.66;75.61
79577;BME280;69045;48.136;11.386;2023-07-13T01:03:56;95289.09;;;22.22;76.74
79577;BME280;69045;48.136;11.386;2023-07-13T01:06:25;95288.34;;;21.98;77.60
79577;BME280;69045;48.136;11.386;2023-07-13T01:08:56;95273.91;;;21.99;78.59
79577;BME280;69045;48.136;11.386;2023-07-13T01:11:26;95274.72;;;22.18;77.30
79577;BME280;69045;48.136;11.386;2023-07-13T01:13:56;95277.16;;;22.33;76.25
79577;BME280;69045;48.136;11.386;2023-07-13T01:16:26;95278.00;;;22.48;75.72
79577;BME280;69045;48.136;11.386;2023-07-13T01:18:56;95271.69;;;22.57;75.28
79577;BME280;69045;48.136;11.386;2023-07-13T01:21:29;95274.97;;;22.68;74.67
79577;BME280;69045;48.136;11.386;2023-07-13T01:23:58;95269.25;;;22.75;74.34
79577;BME280;69045;48.136;11.386;2023-07-13T01:26:27;95274.22;;;22.81;74.30
79577;BME280;69045;48.136;11.386;2023-07-13T01:28:55;95266.13;;;22.86;73.95
79577;BME280;69045;48.136;11.386;2023-07-13T01:31:24;95262.59;;;22.91;73.20
79577;BME280;69045;48.136;11.386;2023-07-13T01:33:53;95267.63;;;22.93;73.19
79577;BME280;69045;48.136;11.386;2023-07-13T01:36:21;95264.66;;;22.94;73.09
79577;BME280;69045;48.136;11.386;2023-07-13T01:38:51;95259.81;;;22.96;72.69
79577;BME280;69045;48.136;11.386;2023-07-13T01:41:19;95276.66;;;22.97;72.89
79577;BME280;69045;48.136;11.386;2023-07-13T01:43:47;95269.91;;;22.99;72.42
79577;BME280;69045;48.136;11.386;2023-07-13T01:46:17;95270.78;;;22.95;72.64
79577;BME280;69045;48.136;11.386;2023-07-13T01:48:50;95274.47;;;22.99;73.10
79577;BME280;69045;48.136;11.386;2023-07-13T01:51:20;95281.09;;;23.01;72.63
79577;BME280;69045;48.136;11.386;2023-07-13T01:53:48;95285.06;;;23.04;72.66
79577;BME280;69045;48.136;11.386;2023-07-13T01:56:18;95288.53;;;23.04;72.78
79577;BME280;69045;48.136;11.386;2023-07-13T01:58:47;95285.56;;;23.06;72.77
79577;BME280;69045;48.136;11.386;2023-07-13T02:01:15;95285.06;;;23.04;72.77
79577;BME280;69045;48.136;11.386;2023-07-13T02:03:43;95287.03;;;22.98;72.91
79577;BME280;69045;48.136;11.386;2023-07-13T02:06:13;95279.59;;;22.95;72.87
79577;BME280;69045;48.136;11.386;2023-07-13T02:08:41;95283.97;;;22.91;73.54
79577;BME280;69045;48.136;11.386;2023-07-13T02:11:11;95286.94;;;22.90;73.99
79577;BME280;69045;48.136;11.386;2023-07-13T02:13:41;95294.13;;;22.89;73.58
79577;BME280;69045;48.136;11.386;2023-07-13T02:16:09;95289.31;;;22.91;73.69
79577;BME280;69045;48.136;11.386;2023-07-13T02:18:38;95289.59;;;22.90;73.40
79577;BME280;69045;48.136;11.386;2023-07-13T02:21:06;95294.66;;;22.91;73.61
79577;BME280;69045;48.136;11.386;2023-07-13T02:23:34;95300.47;;;22.93;73.47
79577;BME280;69045;48.136;11.386;2023-07-13T02:26:03;95310.00;;;22.99;73.12
79577;BME280;69045;48.136;11.386;2023-07-13T02:28:32;95311.78;;;23.04;72.84
79577;BME280;69045;48.136;11.386;2023-07-13T02:31:10;95325.03;;;23.09;72.58
79577;BME280;69045;48.136;11.386;2023-07-13T02:33:39;95333.84;;;23.09;71.99
79577;BME280;69045;48.136;11.386;2023-07-13T02:36:07;95341.88;;;23.09;72.14
79577;BME280;69045;48.136;11.386;2023-07-13T02:38:36;95346.81;;;23.16;71.85
79577;BME280;69045;48.136;11.386;2023-07-13T02:41:05;95340.59;;;23.21;71.36
79577;BME280;69045;48.136;11.386;2023-07-13T02:43:34;95348.72;;;23.29;71.08
79577;BME280;69045;48.136;11.386;2023-07-13T02:46:02;95340.31;;;23.22;70.87
79577;BME280;69045;48.136;11.386;2023-07-13T02:48:37;95350.72;;;23.24;70.71
79577;BME280;69045;48.136;11.386;2023-07-13T02:51:06;95350.22;;;23.35;69.40
79577;BME280;69045;48.136;11.386;2023-07-13T02:53:36;95355.38;;;23.46;68.32
79577;BME280;69045;48.136;11.386;2023-07-13T02:56:05;95345.97;;;23.48;66.76
79577;BME280;69045;48.136;11.386;2023-07-13T02:58:34;95351.41;;;23.43;66.60
79577;BME280;69045;48.136;11.386;2023-07-13T03:01:07;95353.00;;;23.30;66.14
79577;BME280;69045;48.136;11.386;2023-07-13T03:03:37;95347.03;;;23.20;66.26
79577;BME280;69045;48.136;11.386;2023-07-13T03:06:06;95353.16;;;23.06;66.14
79577;BME280;69045;48.136;11.386;2023-07-13T03:08:44;95345.53;;;23.00;66.16
79577;BME280;69045;48.136;11.386;2023-07-13T03:11:16;95353.00;;;22.84;67.20
79577;BME280;69045;48.136;11.386;2023-07-13T03:13:49;95353.31;;;22.64;67.88
79577;BME280;69045;48.136;11.386;2023-07-13T03:16:18;95353.75;;;22.52;68.35
79577;BME280;69045;48.136;11.386;2023-07-13T03:18:50;95350.25;;;22.38;68.71
79577;BME280;69045;48.136;11.386;2023-07-13T03:21:18;95351.53;;;22.21;68.61
79577;BME280;69045;48.136;11.386;2023-07-13T03:23:46;95358.66;;;22.07;69.27
79577;BME280;69045;48.136;11.386;2023-07-13T03:26:16;95360.59;;;22.01;70.06
79577;BME280;69045;48.136;11.386;2023-07-13T03:28:47;95363.78;;;22.03;70.23
79577;BME280;69045;48.136;11.386;2023-07-13T03:31:21;95365.38;;;22.04;70.65
79577;BME280;69045;48.136;11.386;2023-07-13T03:33:52;95372.56;;;22.04;70.50
79577;BME280;69045;48.136;11.386;2023-07-13T03:36:22;95375.31;;;21.99;70.94
79577;BME280;69045;48.136;11.386;2023-07-13T03:38:55;95371.13;;;21.93;70.90
79577;BME280;69045;48.136;11.386;2023-07-13T03:41:28;95362.97;;;21.84;71.40
79577;BME280;69045;48.136;11.386;2023-07-13T03:43:56;95360.00;;;21.86;71.37
79577;BME280;69045;48.136;11.386;2023-07-13T03:46:26;95366.28;;;21.76;72.03
79577;BME280;69045;48.136;11.386;2023-07-13T03:48:58;95360.03;;;21.62;73.25
79577;BME280;69045;48.136;11.386;2023-07-13T03:51:26;95361.19;;;21.56;73.14
79577;BME280;69045;48.136;11.386;2023-07-13T03:53:54;95369.19;;;21.56;73.67
79577;BME280;69045;48.136;11.386;2023-07-13T03:56:22;95361.69;;;21.58;73.61
79577;BME280;69045;48.136;11.386;2023-07-13T03:58:51;95367.50;;;21.60;73.66
79577;BME280;69045;48.136;11.386;2023-07-13T04:01:22;95368.84;;;21.62;73.78
79577;BME280;69045;48.136;11.386;2023-07-13T04:03:52;95372.25;;;21.68;73.58
79577;BME280;69045;48.136;11.386;2023-07-13T04:06:27;95378.56;;;21.72;73.51
79577;BME280;69045;48.136;11.386;2023-07-13T04:08:58;95375.63;;;21.73;73.54
79577;BME280;69045;48.136;11.386;2023-07-13T04:11:31;95373.75;;;21.74;73.34
79577;BME280;69045;48.136;11.386;2023-07-13T04:14:00;95373.75;;;21.74;73.12
79577;BME280;69045;48.136;11.386;2023-07-13T04:16:28;95387.53;;;21.81;73.15
79577;BME280;69045;48.136;11.386;2023-07-13T04:18:56;95383.06;;;21.76;72.40
79577;BME280;69045;48.136;11.386;2023-07-13T04:21:31;95388.56;;;21.85;72.49
79577;BME280;69045;48.136;11.386;2023-07-13T04:24:00;95390.56;;;21.93;72.33
79577;BME280;69045;48.136;11.386;2023-07-13T04:26:28;95393.47;;;21.97;72.36
79577;BME280;69045;48.136;11.386;2023-07-13T04:28:57;95386.97;;;21.84;72.54
79577;BME280;69045;48.136;11.386;2023-07-13T04:31:25;95377.78;;;21.71;72.89
79577;BME280;69045;48.136;11.386;2023-07-13T04:33:53;95392.50;;;21.69;73.00
79577;BME280;69045;48.136;11.386;2023-07-13T04:36:22;95387.72;;;21.66;73.49
79577;BME280;69045;48.136;11.386;2023-07-13T04:38:52;95385.84;;;21.66;73.55
79577;BME280;69045;48.136;11.386;2023-07-13T04:41:21;95393.56;;;21.68;73.71
79577;BME280;69045;48.136;11.386;2023-07-13T04:43:50;95391.69;;;21.68;73.55
79577;BME280;69045;48.136;11.386;2023-07-13T04:46:24;95398.66;;;21.64;74.00
79577;BME280;69045;48.136;11.386;2023-07-13T04:48:53;95412.00;;;21.64;74.25
79577;BME280;69045;48.136;11.386;2023-07-13T04:51:21;95418.13;;;21.65;73.99
79577;BME280;69045;48.136;11.386;2023-07-13T04:53:49;95415.69;;;21.68;73.82
79577;BME280;69045;48.136;11.386;2023-07-13T04:56:26;95414.09;;;21.67;73.41
79577;BME280;69045;48.136;11.386;2023-07-13T04:58:54;95414.91;;;21.68;73.90
79577;BME280;69045;48.136;11.386;2023-07-13T05:01:22;95423.69;;;21.68;73.82
79577;BME280;69045;48.136;11.386;2023-07-13T05:03:52;95415.13;;;21.71;73.91
79577;BME280;69045;48.136;11.386;2023-07-13T05:06:23;95408.66;;;21.77;73.92
79577;BME280;69045;48.136;11.386;2023-07-13T05:08:52;95411.53;;;21.81;73.60
79577;BME280;69045;48.136;11.386;2023-07-13T05:11:25;95412.25;;;21.87;73.11
79577;BME280;69045;48.136;11.386;2023-07-13T05:13:54;95418.91;;;21.89;73.13
79577;BME280;69045;48.136;11.386;2023-07-13T05:16:22;95411.41;;;21.91;73.29
79577;BME280;69045;48.136;11.386;2023-07-13T05:18:50;95411.38;;;21.96;72.98
79577;BME280;69045;48.136;11.386;2023-07-13T05:21:19;95415.63;;;21.97;72.52
79577;BME280;69045;48.136;11.386;2023-07-13T05:23:48;95417.94;;;22.04;72.01
79577;BME280;69045;48.136;11.386;2023-07-13T05:26:17;95414.16;;;22.10;71.86
79577;BME280;69045;48.136;11.386;2023-07-13T05:28:47;95419.69;;;22.14;71.40
79577;BME280;69045;48.136;11.386;2023-07-13T05:31:16;95424.03;;;22.10;71.06
79577;BME280;69045;48.136;11.386;2023-07-13T05:33:44;95422.69;;;22.07;71.41
79577;BME280;69045;48.136;11.386;2023-07-13T05:36:12;95426.72;;;22.10;71.44
79577;BME280;69045;48.136;11.386;2023-07-13T05:38:40;95428.78;;;22.13;71.30
79577;BME280;69045;48.136;11.386;2023-07-13T05:41:08;95430.31;;;22.19;71.42
79577;BME280;69045;48.136;11.386;2023-07-13T05:43:37;95431.00;;;22.29;71.13
79577;BME280;69045;48.136;11.386;2023-07-13T05:46:09;95431.34;;;22.42;70.96
79577;BME280;69045;48.136;11.386;2023-07-13T05:48:39;95427.88;;;22.60;70.45
79577;BME280;69045;48.136;11.386;2023-07-13T05:51:08;95424.97;;;22.75;70.02
79577;BME280;69045;48.136;11.386;2023-07-13T05:53:40;95427.22;;;22.87;69.80
79577;BME280;69045;48.136;11.386;2023-07-13T05:56:10;95431.63;;;22.97;69.43
79577;BME280;69045;48.136;11.386;2023-07-13T05:58:38;95436.38;;;23.00;68.62
79577;BME280;69045;48.136;11.386;2023-07-13T06:01:12;95436.31;;;23.05;68.56
79577;BME280;69045;48.136;11.386;2023-07-13T06:03:41;95439.97;;;23.09;68.30
79577;BME280;69045;48.136;11.386;2023-07-13T06:06:11;95444.53;;;23.08;68.69
79577;BME280;69045;48.136;11.386;2023-07-13T06:08:40;95446.03;;;23.14;67.83
79577;BME280;69045;48.136;11.386;2023-07-13T06:11:14;95454.38;;;23.27;67.49
79577;BME280;69045;48.136;11.386;2023-07-13T06:13:43;95460.38;;;23.51;66.00
79577;BME280;69045;48.136;11.386;2023-07-13T06:16:14;95453.47;;;23.64;65.88
79577;BME280;69045;48.136;11.386;2023-07-13T06:18:44;95453.91;;;23.71;64.44
79577;BME280;69045;48.136;11.386;2023-07-13T06:21:15;95455.97;;;23.74;64.16
79577;BME280;69045;48.136;11.386;2023-07-13T06:23:48;95459.06;;;23.81;63.62
79577;BME280;69045;48.136;11.386;2023-07-13T06:26:18;95458.44;;;23.84;63.36
79577;BME280;69045;48.136;11.386;2023-07-13T06:28:47;95462.72;;;23.85;63.74
79577;BME280;69045;48.136;11.386;2023-07-13T06:31:16;95468.34;;;23.84;62.71
79577;BME280;69045;48.136;11.386;2023-07-13T06:33:45;95483.34;;;23.85;62.97
79577;BME280;69045;48.136;11.386;2023-07-13T06:36:13;95481.16;;;23.87;62.75
79577;BME280;69045;48.136;11.386;2023-07-13T06:38:41;95487.50;;;23.91;62.20
79577;BME280;69045;48.136;11.386;2023-07-13T06:41:12;95482.84;;;23.83;61.50
79577;BME280;69045;48.136;11.386;2023-07-13T06:43:41;95491.66;;;23.83;61.89
79577;BME280;69045;48.136;11.386;2023-07-13T06:46:10;95478.97;;;23.89;62.62
79577;BME280;69045;48.136;11.386;2023-07-13T06:48:40;95492.44;;;23.97;62.13
79577;BME280;69045;48.136;11.386;2023-07-13T06:51:08;95483.44;;;23.93;61.56
79577;BME280;69045;48.136;11.386;2023-07-13T06:53:37;95499.69;;;23.97;62.38
79577;BME280;69045;48.136;11.386;2023-07-13T06:56:05;95498.91;;;23.96;62.07
79577;BME280;69045;48.136;11.386;2023-07-13T06:58:34;95503.47;;;23.96;62.20
79577;BME280;69045;48.136;11.386;2023-07-13T07:01:02;95505.84;;;23.97;61.28
79577;BME280;69045;48.136;11.386;2023-07-13T07:03:34;95511.56;;;23.91;60.36
79577;BME280;69045;48.136;11.386;2023-07-13T07:06:13;95506.13;;;23.82;59.82
79577;BME280;69045;48.136;11.386;2023-07-13T07:08:43;95501.53;;;23.69;60.75
79577;BME280;69045;48.136;11.386;2023-07-13T07:11:15;95498.38;;;23.67;61.03
79577;BME280;69045;48.136;11.386;2023-07-13T07:13:44;95500.66;;;23.74;61.04
79577;BME280;69045;48.136;11.386;2023-07-13T07:16:12;95507.22;;;23.81;61.04
79577;BME280;69045;48.136;11.386;2023-07-13T07:18:41;95503.06;;;23.89;60.73
79577;BME280;69045;48.136;11.386;2023-07-13T07:21:12;95505.75;;;24.03;61.26
79577;BME280;69045;48.136;11.386;2023-07-13T07:23:41;95500.69;;;24.15;60.71
79577;BME280;69045;48.136;11.386;2023-07-13T07:26:11;95508.03;;;24.23;59.76
79577;BME280;69045;48.136;11.386;2023-07-13T07:28:39;95506.84;;;24.29;60.16
79577;BME280;69045;48.136;11.386;2023-07-13T07:31:12;95516.59;;;24.39;59.75
79577;BME280;69045;48.136;11.386;2023-07-13T07:33:45;95516.78;;;24.42;59.47
79577;BME280;69045;48.136;11.386;2023-07-13T07:36:15;95526.50;;;24.38;59.25
79577;BME280;69045;48.136;11.386;2023-07-13T07:38:46;95536.81;;;24.45;59.29
79577;BME280;69045;48.136;11.386;2023-07-13T07:41:14;95531.97;;;24.47;58.60
79577;BME280;69045;48.136;11.386;2023-07-13T07:43:45;95527.97;;;24.44;58.62
79577;BME280;69045;48.136;11.386;2023-07-13T07:46:14;95533.16;;;24.41;57.37
79577;BME280;69045;48.136;11.386;2023-07-13T07:48:43;95540.97;;;24.37;58.05
79577;BME280;69045;48.136;11.386;2023-07-13T07:51:11;95546.94;;;24.34;57.80
79577;BME280;69045;48.136;11.386;2023-07-13T07:53:42;95548.72;;;24.25;58.71
79577;BME280;69045;48.136;11.386;2023-07-13T07:56:10;95550.56;;;24.11;58.55
79577;BME280;69045;48.136;11.386;2023-07-13T07:58:41;95539.75;;;24.02;60.22
79577;BME280;69045;48.136;11.386;2023-07-13T08:01:13;95546.91;;;24.07;59.81
79577;BME280;69045;48.136;11.386;2023-07-13T08:03:44;95550.75;;;24.01;59.96
79577;BME280;69045;48.136;11.386;2023-07-13T08:06:15;95557.78;;;23.96;59.14
79577;BME280;69045;48.136;11.386;2023-07-13T08:08:51;95552.31;;;23.88;58.58
79577;BME280;69045;48.136;11.386;2023-07-13T08:11:20;95552.72;;;23.81;58.58
79577;BME280;69045;48.136;11.386;2023-07-13T08:13:52;95564.19;;;23.82;58.76
79577;BME280;69045;48.136;11.386;2023-07-13T08:16:22;95565.22;;;23.86;58.82
79577;BME280;69045;48.136;11.386;2023-07-13T08:18:51;95555.78;;;23.88;58.39
79577;BME280;69045;48.136;11.386;2023-07-13T08:21:19;95563.91;;;23.83;58.33
79577;BME280;69045;48.136;11.386;2023-07-13T08:23:50;95567.66;;;23.82;58.04
79577;BME280;69045;48.136;11.386;2023-07-13T08:26:19;95569.38;;;23.78;56.25
79577;BME280;69045;48.136;11.386;2023-07-13T08:28:49;95570.53;;;23.72;56.17
79577;BME280;69045;48.136;11.386;2023-07-13T08:31:17;95572.41;;;23.72;57.35
79577;BME280;69045;48.136;11.386;2023-07-13T08:33:46;95566.56;;;23.83;56.32
79577;BME280;69045;48.136;11.386;2023-07-13T08:36:14;95574.16;;;23.95;53.24
79577;BME280;69045;48.136;11.386;2023-07-13T08:38:42;95584.88;;;24.09;53.95
79577;BME280;69045;48.136;11.386;2023-07-13T08:41:15;95581.34;;;24.27;53.21
79577;BME280;69045;48.136;11.386;2023-07-13T08:43:48;95583.66;;;24.47;52.62
79577;BME280;69045;48.136;11.386;2023-07-13T08:46:24;95580.97;;;24.47;51.34
79577;BME280;69045;48.136;11.386;2023-07-13T08:48:58;95580.06;;;24.38;49.75
79577;BME280;69045;48.136;11.386;2023-07-13T08:51:35;95578.47;;;24.37;50.17
79577;BME280;69045;48.136;11.386;2023-07-13T08:54:18;95574.53;;;24.35;50.97
79577;BME280;69045;48.136;11.386;2023-07-13T08:56:52;95578.84;;;24.31;50.47
79577;BME280;69045;48.136;11.386;2023-07-13T08:59:27;95582.31;;;24.31;50.50
79577;BME280;69045;48.136;11.386;2023-07-13T09:02:23;95583.41;;;24.30;50.46
79577;BME280;69045;48.136;11.386;2023-07-13T09:04:58;95588.06;;;24.24;51.57
79577;BME280;69045;48.136;11.386;2023-07-13T09:07:50;95585.69;;;24.23;52.04
79577;BME280;69045;48.136;11.386;2023-07-13T09:10:30;95587.78;;;24.26;51.89
79577;BME280;69045;48.136;11.386;2023-07-13T09:13:16;95586.47;;;24.23;51.54
79577;BME280;69045;48.136;11.386;2023-07-13T09:15:50;95583.09;;;24.18;50.45
79577;BME280;69045;48.136;11.386;2023-07-13T09:18:25;95582.22;;;24.22;49.78
79577;BME280;69045;48.136;11.386;2023-07-13T09:21:02;95586.59;;;24.32;50.05
79577;BME280;69045;48.136;11.386;2023-07-13T09:23:32;95584.53;;;24.43;50.68
79577;BME280;69045;48.136;11.386;2023-07-13T09:26:05;95587.91;;;24.48;48.65
79577;BME280;69045;48.136;11.386;2023-07-13T09:28:39;95585.53;;;24.33;47.44
79577;BME280;69045;48.136;11.386;2023-07-13T09:31:14;95600.00;;;24.32;48.77
79577;BME280;69045;48.136;11.386;2023-07-13T09:33:43;95593.44;;;24.38;47.96
79577;BME280;69045;48.136;11.386;2023-07-13T09:36:19;95592.66;;;24.51;48.85
79577;BME280;69045;48.136;11.386;2023-07-13T09:38:59;95594.38;;;24.61;48.71
79577;BME280;69045;48.136;11.386;2023-07-13T09:41:46;95588.38;;;24.78;47.59
79577;BME280;69045;48.136;11.386;2023-07-13T09:44:27;95582.03;;;24.88;47.50
79577;BME280;69045;48.136;11.386;2023-07-13T09:46:59;95585.88;;;24.95;47.97
79577;BME280;69045;48.136;11.386;2023-07-13T09:49:34;95588.75;;;25.13;49.51
79577;BME280;69045;48.136;11.386;2023-07-13T09:52:07;95586.53;;;25.28;47.72
79577;BME280;69045;48.136;11.386;2023-07-13T09:54:38;95593.53;;;25.38;47.06
79577;BME280;69045;48.136;11.386;2023-07-13T09:57:12;95597.44;;;25.32;47.46
79577;BME280;69045;48.136;11.386;2023-07-13T09:59:48;95584.69;;;25.15;48.12
79577;BME280;69045;48.136;11.386;2023-07-13T10:02:23;95594.22;;;25.08;48.05
79577;BME280;69045;48.136;11.386;2023-07-13T10:04:56;95594.09;;;25.13;48.80
79577;BME280;69045;48.136;11.386;2023-07-13T10:07:26;95588.78;;;25.35;47.48
79577;BME280;69045;48.136;11.386;2023-07-13T10:09:57;95586.06;;;25.49;46.38
79577;BME280;69045;48.136;11.386;2023-07-13T10:12:29;95593.25;;;25.84;46.76
79577;BME280;69045;48.136;11.386;2023-07-13T10:15:01;95594.44;;;26.23;46.54
79577;BME280;69045;48.136;11.386;2023-07-13T10:17:53;95602.53;;;26.72;46.24
79577;BME280;69045;48.136;11.386;2023-07-13T10:20:27;95599.16;;;27.06;44.06
79577;BME280;69045;48.136;11.386;2023-07-13T10:23:00;95597.59;;;27.13;42.85
79577;BME280;69045;48.136;11.386;2023-07-13T10:25:34;95601.84;;;27.23;43.77
79577;BME280;69045;48.136;11.386;2023-07-13T10:28:15;95608.19;;;27.36;43.35
79577;BME280;69045;48.136;11.386;2023-07-13T10:30:54;95595.22;;;27.29;43.57
79577;BME280;69045;48.136;11.386;2023-07-13T10:33:23;95599.81;;;27.29;43.52
79577;BME280;69045;48.136;11.386;2023-07-13T10:36:05;95589.88;;;27.38;43.88
79577;BME280;69045;48.136;11.386;2023-07-13T10:38:46;95595.38;;;27.41;42.27
79577;BME280;69045;48.136;11.386;2023-07-13T10:41:19;95596.34;;;27.54;41.71
79577;BME280;69045;48.136;11.386;2023-07-13T10:43:53;95596.19;;;27.59;41.71
79577;BME280;69045;48.136;11.386;2023-07-13T10:46:27;95604.44;;;27.71;41.60
79577;BME280;69045;48.136;11.386;2023-07-13T10:49:00;95613.44;;;27.75;40.92
79577;BME280;69045;48.136;11.386;2023-07-13T10:51:31;95608.06;;;27.67;40.07
79577;BME280;69045;48.136;11.386;2023-07-13T10:54:20;95610.91;;;27.70;41.73
79577;BME280;69045;48.136;11.386;2023-07-13T10:57:07;95605.31;;;28.10;40.96
79577;BME280;69045;48.136;11.386;2023-07-13T10:59:46;95606.28;;;28.61;38.72
79577;BME280;69045;48.136;11.386;2023-07-13T11:02:23;95602.38;;;29.09;36.74
79577;BME280;69045;48.136;11.386;2023-07-13T11:04:55;95608.59;;;29.30;37.69
79577;BME280;69045;48.136;11.386;2023-07-13T11:07:26;95615.00;;;29.47;36.28
79577;BME280;69045;48.136;11.386;2023-07-13T11:09:57;95621.63;;;29.49;36.06
79577;BME280;69045;48.136;11.386;2023-07-13T11:12:50;95619.53;;;29.34;37.51
79577;BME280;69045;48.136;11.386;2023-07-13T11:15:32;95616.63;;;29.39;37.40
79577;BME280;69045;48.136;11.386;2023-07-13T11:18:04;95614.66;;;29.48;35.88
79577;BME280;69045;48.136;11.386;2023-07-13T11:20:38;95617.56;;;29.64;36.49
79577;BME280;69045;48.136;11.386;2023-07-13T11:23:18;95601.22;;;29.81;36.15
79577;BME280;69045;48.136;11.386;2023-07-13T11:25:47;95596.63;;;29.94;36.52
79577;BME280;69045;48.136;11.386;2023-07-13T11:28:21;95597.53;;;29.98;34.99
79577;BME280;69045;48.136;11.386;2023-07-13T11:31:01;95593.16;;;30.06;35.19
79577;BME280;69045;48.136;11.386;2023-07-13T11:34:01;95595.63;;;29.99;35.94
79577;BME280;69045;48.136;11.386;2023-07-13T11:36:37;95591.22;;;30.15;34.95
79577;BME280;69045;48.136;11.386;2023-07-13T11:39:18;95587.50;;;30.32;34.62
79577;BME280;69045;48.136;11.386;2023-07-13T11:41:52;95580.53;;;30.31;35.33
79577;BME280;69045;48.136;11.386;2023-07-13T11:44:24;95587.59;;;30.11;34.52
79577;BME280;69045;48.136;11.386;2023-07-13T11:46:54;95579.03;;;29.13;35.54
79577;BME280;69045;48.136;11.386;2023-07-13T11:49:28;95580.28;;;29.16;36.36
79577;BME280;69045;48.136;11.386;2023-07-13T11:52:00;95581.84;;;28.96;36.66
79577;BME280;69045;48.136;11.386;2023-07-13T11:54:32;95579.34;;;29.12;36.49
79577;BME280;69045;48.136;11.386;2023-07-13T11:57:06;95589.63;;;29.18;36.78
79577;BME280;69045;48.136;11.386;2023-07-13T11:59:40;95589.34;;;29.11;34.87
79577;BME280;69045;48.136;11.386;2023-07-13T12:02:20;95585.19;;;28.93;36.47
79577;BME280;69045;48.136;11.386;2023-07-13T12:04:56;95579.88;;;28.75;36.34
79577;BME280;69045;48.136;11.386;2023-07-13T12:07:29;95574.75;;;28.82;35.73
79577;BME280;69045;48.136;11.386;2023-07-13T12:10:00;95578.38;;;28.87;36.19
79577;BME280;69045;48.136;11.386;2023-07-13T12:12:30;95579.19;;;28.78;36.73
79577;BME280;69045;48.136;11.386;2023-07-13T12:14:59;95572.72;;;28.79;36.03
79577;BME280;69045;48.136;11.386;2023-07-13T12:17:28;95570.81;;;28.80;36.58
79577;BME280;69045;48.136;11.386;2023-07-13T12:19:58;95560.13;;;28.83;35.44
79577;BME280;69045;48.136;11.386;2023-07-13T12:22:27;95564.47;;;28.76;35.92
79577;BME280;69045;48.136;11.386;2023-07-13T12:24:56;95555.13;;;28.73;35.83
79577;BME280;69045;48.136;11.386;2023-07-13T12:27:27;95560.38;;;28.70;36.38
79577;BME280;69045;48.136;11.386;2023-07-13T12:29:59;95563.53;;;28.72;35.79
79577;BME280;69045;48.136;11.386;2023-07-13T12:32:29;95563.63;;;28.84;36.04
79577;BME280;69045;48.136;11.386;2023-07-13T12:35:14;95560.09;;;28.92;35.58
79577;BME280;69045;48.136;11.386;2023-07-13T12:37:43;95563.75;;;29.17;34.77
79577;BME280;69045;48.136;11.386;2023-07-13T12:40:16;95558.69;;;29.36;33.37
79577;BME280;69045;48.136;11.386;2023-07-13T12:42:48;95555.78;;;29.42;33.75
79577;BME280;69045;48.136;11.386;2023-07-13T12:45:21;95555.78;;;29.42;33.72
79577;BME280;69045;48.136;11.386;2023-07-13T12:47:54;95547.00;;;29.45;32.99
79577;BME280;69045;48.136;11.386;2023-07-13T12:50:36;95545.31;;;29.61;33.39
79577;BME280;69045;48.136;11.386;2023-07-13T12:53:09;95545.31;;;29.61;33.50
79577;BME280;69045;48.136;11.386;2023-07-13T12:55:42;95537.66;;;29.42;32.97
79577;BME280;69045;48.136;11.386;2023-07-13T12:58:18;95537.66;;;29.42;33.89
79577;BME280;69045;48.136;11.386;2023-07-13T13:00:51;95530.81;;;29.45;33.86
79577;BME280;69045;48.136;11.386;2023-07-13T13:03:26;95522.06;;;29.48;33.44
79577;BME280;69045;48.136;11.386;2023-07-13T13:06:02;95531.22;;;29.34;33.30
79577;BME280;69045;48.136;11.386;2023-07-13T13:08:33;95535.91;;;29.25;34.03
79577;BME280;69045;48.136;11.386;2023-07-13T13:11:03;95530.22;;;29.39;33.67
79577;BME280;69045;48.136;11.386;2023-07-13T13:13:31;95532.22;;;29.51;33.66